LIBD/BRI METAR and TAF weather

Enter ICAO airport designator
Station Type Date Time Source
LIBD METAR 2019/06/26 20:50 UTC NOAA

LIBD 262050Z 34006KT 310V020 CAVOK 26/20 Q1019


Station Type Date Time Source
LIBD Decoded METAR 2019/06/26 20:50 UTC NOAA

Bari / Palese Macchie, Italy (LIBD) 41-08N 016-47E 49M
Jun 26, 2019 - 04:50 PM EDT / 2019.06.26 2050 UTC
Wind: from the NNW (340 degrees) at 7 MPH (6 KT) (direction variable):0
Visibility: greater than 7 mile(s):0
Temperature: 78 F (26 C)
Dew Point: 68 F (20 C)
Relative Humidity: 69%
Pressure (altimeter): 30.09 in. Hg (1019 hPa)
ob: LIBD 262050Z 34006KT 310V020 CAVOK 26/20 Q1019
cycle: 21

Station Type Date Time Source
LIBD TAF 2019/06/26 18:21 UTC NOAA

TAF TAF LIBD 261700Z 2618/2718 02014KT CAVOK
BECMG 2619/2621 31015KT
BECMG 2710/2712 01010KT

Example: see airport list